createdAt,value
2017-11-11T00:01:28.812Z,4.89
2017-11-11T00:03:56.267Z,4.93
2017-11-11T00:06:23.008Z,4.93
2017-11-11T00:08:50.434Z,5.03
2017-11-11T00:11:17.124Z,4.93
2017-11-11T00:13:44.513Z,4.95
2017-11-11T00:16:11.196Z,4.99
2017-11-11T00:18:38.194Z,5.09
2017-11-11T00:21:04.925Z,4.93
2017-11-11T00:23:32.346Z,4.90
2017-11-11T00:25:59.995Z,5.05
2017-11-11T00:28:26.649Z,5.04
2017-11-11T00:30:53.319Z,5.12
2017-11-11T00:33:20.797Z,5.07
2017-11-11T00:35:47.484Z,5.12
2017-11-11T00:38:14.252Z,5.08
2017-11-11T00:40:41.040Z,4.81
2017-11-11T00:43:07.715Z,4.90
2017-11-11T00:45:34.403Z,4.88
2017-11-11T00:48:01.056Z,4.88
2017-11-11T00:50:28.452Z,4.80
2017-11-11T00:52:55.131Z,4.71
2017-11-11T00:55:21.827Z,4.75
2017-11-11T00:57:48.509Z,4.58
2017-11-11T01:00:15.306Z,4.55
2017-11-11T01:02:41.972Z,4.57
2017-11-11T01:05:08.635Z,4.48
2017-11-11T01:07:35.288Z,4.50
2017-11-11T01:10:02.025Z,4.51
2017-11-11T01:12:28.735Z,4.46
2017-11-11T01:14:55.385Z,4.42
2017-11-11T01:17:22.120Z,4.35
2017-11-11T01:19:49.101Z,4.40
2017-11-11T01:22:15.754Z,4.39
2017-11-11T01:24:42.460Z,4.47
2017-11-11T01:27:09.127Z,4.34
2017-11-11T01:29:35.796Z,4.35
2017-11-11T01:32:02.480Z,4.13
2017-11-11T01:34:29.674Z,4.18
2017-11-11T01:36:56.336Z,4.36
2017-11-11T01:39:23.080Z,4.35
2017-11-11T01:41:49.737Z,4.43
2017-11-11T01:44:17.172Z,4.35
2017-11-11T01:46:43.855Z,4.21
2017-11-11T01:49:10.545Z,4.28
2017-11-11T01:51:37.991Z,4.37
2017-11-11T01:54:04.678Z,4.34
2017-11-11T01:56:31.432Z,4.05
2017-11-11T01:58:58.981Z,4.16
2017-11-11T02:01:26.483Z,4.26
2017-11-11T02:03:54.276Z,4.31
2017-11-11T02:06:21.002Z,4.34
2017-11-11T02:08:47.772Z,4.33
2017-11-11T02:11:14.451Z,4.22
2017-11-11T02:13:41.869Z,4.18
2017-11-11T02:16:08.576Z,4.11
2017-11-11T02:18:35.278Z,3.82
2017-11-11T02:21:01.981Z,3.99
2017-11-11T02:23:28.754Z,3.91
2017-11-11T02:25:55.471Z,3.97
2017-11-11T02:28:22.230Z,4.02
2017-11-11T02:30:49.007Z,3.99
2017-11-11T02:33:15.737Z,4.01
2017-11-11T02:35:42.483Z,3.84
2017-11-11T02:38:09.251Z,3.82
2017-11-11T02:40:36.811Z,4.00
2017-11-11T02:43:03.553Z,3.93
2017-11-11T02:45:30.307Z,3.87
2017-11-11T02:47:57.774Z,3.95
2017-11-11T02:50:25.360Z,3.96
2017-11-11T02:52:52.072Z,3.82
2017-11-11T02:55:18.749Z,3.83
2017-11-11T02:57:45.473Z,3.77
2017-11-11T03:00:13.040Z,3.70
2017-11-11T03:02:39.771Z,3.78
2017-11-11T03:05:07.214Z,3.83
2017-11-11T03:07:33.922Z,3.85
2017-11-11T03:10:00.619Z,3.80
2017-11-11T03:12:28.015Z,3.79
2017-11-11T03:14:54.809Z,3.74
2017-11-11T03:17:21.516Z,3.72
2017-11-11T03:19:48.539Z,3.71
2017-11-11T03:22:15.251Z,3.72
2017-11-11T03:24:42.658Z,3.71
2017-11-11T03:27:09.330Z,3.54
2017-11-11T03:29:35.998Z,3.50
2017-11-11T03:32:02.643Z,3.52
2017-11-11T03:34:30.051Z,3.55
2017-11-11T03:36:56.719Z,3.41
2017-11-11T03:39:23.368Z,3.36
2017-11-11T03:41:50.043Z,3.38
2017-11-11T03:44:17.476Z,3.46
2017-11-11T03:46:44.115Z,3.42
2017-11-11T03:49:10.765Z,3.25
2017-11-11T03:51:38.335Z,3.41
2017-11-11T03:54:05.004Z,3.44
2017-11-11T03:56:31.649Z,3.50
2017-11-11T03:58:58.345Z,3.45
2017-11-11T04:01:25.813Z,3.30
2017-11-11T04:03:52.508Z,3.40
2017-11-11T04:06:19.288Z,3.51
2017-11-11T04:08:45.956Z,3.51
2017-11-11T04:11:12.617Z,3.22
2017-11-11T04:13:40.056Z,3.03
2017-11-11T04:16:06.745Z,3.02
2017-11-11T04:18:33.393Z,3.25
2017-11-11T04:21:00.054Z,3.38
2017-11-11T04:23:27.649Z,3.33
2017-11-11T04:25:54.303Z,3.32
2017-11-11T04:28:21.733Z,3.39
2017-11-11T04:30:48.381Z,3.44
2017-11-11T04:33:15.028Z,3.35
2017-11-11T04:35:41.733Z,3.32
2017-11-11T04:38:08.386Z,3.22
2017-11-11T04:40:35.058Z,3.09
2017-11-11T04:43:01.783Z,3.14
2017-11-11T04:45:29.314Z,3.17
2017-11-11T04:47:55.973Z,3.38
2017-11-11T04:50:22.994Z,3.53
2017-11-11T04:52:49.671Z,3.66
2017-11-11T04:55:17.112Z,3.72
2017-11-11T04:57:43.804Z,3.75
2017-11-11T05:00:10.589Z,3.79
2017-11-11T05:02:37.281Z,3.94
2017-11-11T05:05:04.835Z,3.83
2017-11-11T05:07:31.524Z,3.84
2017-11-11T05:09:58.916Z,3.72
2017-11-11T05:12:25.777Z,3.70
2017-11-11T05:14:52.433Z,3.83
2017-11-11T05:17:19.097Z,3.74
2017-11-11T05:19:45.826Z,3.88
2017-11-11T05:22:12.540Z,3.51
2017-11-11T05:24:39.194Z,3.73
2017-11-11T05:27:05.892Z,3.67
2017-11-11T05:29:32.587Z,3.70
2017-11-11T05:31:59.250Z,3.54
2017-11-11T05:34:25.974Z,3.57
2017-11-11T05:36:52.673Z,3.56
2017-11-11T05:39:19.376Z,3.57
2017-11-11T05:41:46.029Z,3.29
2017-11-11T05:44:13.662Z,3.28
2017-11-11T05:46:41.051Z,3.33
2017-11-11T05:49:08.474Z,3.23
2017-11-11T05:51:35.141Z,3.22
2017-11-11T05:54:01.781Z,3.19
2017-11-11T05:56:28.465Z,3.00
2017-11-11T05:58:55.125Z,3.23
2017-11-11T06:01:21.801Z,3.56
2017-11-11T06:03:48.559Z,3.47
2017-11-11T06:06:15.220Z,3.53
2017-11-11T06:08:42.630Z,3.74
2017-11-11T06:11:09.302Z,3.97
2017-11-11T06:13:36.546Z,4.09
2017-11-11T06:16:03.201Z,4.22
2017-11-11T06:18:29.896Z,4.37
2017-11-11T06:20:56.835Z,4.57
2017-11-11T06:23:23.530Z,4.73
2017-11-11T06:25:50.225Z,4.73
2017-11-11T06:28:16.904Z,4.95
2017-11-11T06:30:43.539Z,6.32
2017-11-11T06:33:10.206Z,7.64
2017-11-11T06:35:36.907Z,7.81
2017-11-11T06:38:03.895Z,7.69
2017-11-11T06:40:30.596Z,7.54
2017-11-11T06:42:57.575Z,8.32
2017-11-11T06:45:24.218Z,8.74
2017-11-11T06:47:50.906Z,10.52
2017-11-11T06:50:18.304Z,12.39
2017-11-11T06:52:45.011Z,14.29
2017-11-11T06:55:11.705Z,15.74
2017-11-11T06:57:38.384Z,16.47
2017-11-11T07:00:05.812Z,13.84
2017-11-11T07:02:32.574Z,11.87
2017-11-11T07:04:59.248Z,13.65
2017-11-11T07:07:25.959Z,15.71
2017-11-11T07:09:52.698Z,17.73
2017-11-11T07:12:19.435Z,20.56
2017-11-11T07:14:46.148Z,21.89
2017-11-11T07:17:12.889Z,23.86
2017-11-11T07:19:39.650Z,24.97
2017-11-11T07:22:06.327Z,24.35
2017-11-11T07:24:33.070Z,23.24
2017-11-11T07:27:00.512Z,22.17
2017-11-11T07:29:27.148Z,21.97
2017-11-11T07:31:53.860Z,22.17
2017-11-11T07:34:20.538Z,22.44
2017-11-11T07:36:47.250Z,22.74
2017-11-11T07:39:13.954Z,20.83
2017-11-11T07:41:40.606Z,18.13
2017-11-11T07:44:08.894Z,18.84
2017-11-11T07:46:36.339Z,21.78
2017-11-11T07:49:03.003Z,24.91
2017-11-11T07:51:29.703Z,25.26
2017-11-11T07:53:56.389Z,25.87
2017-11-11T07:56:23.814Z,25.93
2017-11-11T07:58:50.478Z,24.72
2017-11-11T08:01:18.001Z,24.94
2017-11-11T08:03:44.657Z,22.68
2017-11-11T08:06:11.343Z,21.30
2017-11-11T08:08:38.097Z,22.38
2017-11-11T08:11:04.771Z,25.05
2017-11-11T08:13:32.485Z,26.55
2017-11-11T08:15:59.996Z,27.99
2017-11-11T08:18:26.714Z,28.82
2017-11-11T08:20:53.420Z,26.65
2017-11-11T08:23:20.895Z,27.19
2017-11-11T08:25:48.340Z,26.46
2017-11-11T08:28:15.027Z,26.30
2017-11-11T08:30:41.787Z,24.70
2017-11-11T08:33:08.449Z,23.93
2017-11-11T08:35:35.111Z,20.43
2017-11-11T08:38:01.935Z,18.08
2017-11-11T08:40:28.643Z,16.43
2017-11-11T08:42:55.346Z,16.10
2017-11-11T08:45:22.071Z,17.05
2017-11-11T08:47:48.752Z,18.54
2017-11-11T08:50:16.166Z,19.35
2017-11-11T08:52:42.831Z,18.58
2017-11-11T08:55:09.541Z,16.45
2017-11-11T08:57:36.958Z,15.74
2017-11-11T09:00:04.410Z,15.32
2017-11-11T09:02:32.828Z,13.57
2017-11-11T09:04:59.515Z,12.73
2017-11-11T09:07:26.226Z,12.29
2017-11-11T09:09:52.900Z,12.31
2017-11-11T09:12:19.558Z,12.34
2017-11-11T09:14:47.014Z,12.36
2017-11-11T09:17:14.414Z,12.00
2017-11-11T09:19:41.074Z,12.06
2017-11-11T09:22:07.759Z,11.91
2017-11-11T09:24:35.095Z,11.77
2017-11-11T09:27:01.756Z,11.88
2017-11-11T09:29:28.444Z,12.58
2017-11-11T09:31:55.122Z,13.31
2017-11-11T09:34:21.784Z,13.69
2017-11-11T09:36:48.465Z,13.86
2017-11-11T09:39:15.184Z,14.01
2017-11-11T09:41:42.588Z,14.78
2017-11-11T09:44:09.261Z,15.72
2017-11-11T09:46:35.912Z,15.71
2017-11-11T09:49:02.580Z,15.83
2017-11-11T09:51:30.020Z,16.90
2017-11-11T09:53:56.708Z,18.14
2017-11-11T09:56:23.416Z,19.30
2017-11-11T09:58:50.873Z,20.11
2017-11-11T10:01:17.556Z,20.12
2017-11-11T10:03:44.250Z,19.56
2017-11-11T10:06:10.980Z,18.70
2017-11-11T10:08:37.621Z,19.78
2017-11-11T10:11:04.297Z,19.98
2017-11-11T10:13:31.746Z,20.36
2017-11-11T10:15:58.455Z,20.62
2017-11-11T10:18:25.107Z,21.36
2017-11-11T10:20:51.814Z,21.21
2017-11-11T10:23:18.446Z,20.71
2017-11-11T10:25:45.143Z,19.66
2017-11-11T10:28:12.835Z,18.70
2017-11-11T10:30:39.527Z,19.18
2017-11-11T10:33:06.245Z,18.74
2017-11-11T10:35:32.987Z,19.00
2017-11-11T10:37:59.668Z,19.03
2017-11-11T10:40:26.412Z,18.67
2017-11-11T10:42:53.185Z,18.34
2017-11-11T10:45:19.902Z,17.90
2017-11-11T10:47:46.592Z,18.16
2017-11-11T10:50:14.083Z,19.03
2017-11-11T10:52:40.757Z,19.44
2017-11-11T10:55:07.477Z,19.84
2017-11-11T10:57:34.237Z,20.09
2017-11-11T11:00:00.992Z,19.03
2017-11-11T11:02:27.727Z,20.06
2017-11-11T11:04:54.412Z,20.47
2017-11-11T11:07:21.868Z,19.48
2017-11-11T11:09:49.277Z,19.10
2017-11-11T11:12:15.948Z,18.96
2017-11-11T11:14:42.624Z,18.53
2017-11-11T11:17:10.033Z,17.36
2017-11-11T11:19:36.742Z,16.20
2017-11-11T11:22:03.474Z,15.87
2017-11-11T11:24:30.919Z,15.42
2017-11-11T11:26:58.411Z,15.21
2017-11-11T11:29:25.131Z,15.02
2017-11-11T11:31:52.622Z,15.10
2017-11-11T11:34:19.349Z,14.87
2017-11-11T11:36:46.872Z,14.85
2017-11-11T11:39:13.580Z,14.82
2017-11-11T11:41:40.250Z,14.60
2017-11-11T11:44:06.944Z,14.65
2017-11-11T11:46:34.356Z,14.46
2017-11-11T11:49:01.040Z,14.18
2017-11-11T11:51:28.465Z,13.58
2017-11-11T11:53:55.127Z,13.25
2017-11-11T11:56:21.818Z,13.13
2017-11-11T11:58:48.495Z,13.32
2017-11-11T12:01:15.164Z,13.37
2017-11-11T12:03:42.580Z,13.12
2017-11-11T12:06:09.270Z,12.87
2017-11-11T12:08:36.682Z,12.91
2017-11-11T12:11:03.374Z,12.66
2017-11-11T12:13:30.807Z,12.64
2017-11-11T12:15:57.451Z,12.53
2017-11-11T12:18:25.717Z,12.63
2017-11-11T12:20:52.400Z,12.57
2017-11-11T12:23:19.096Z,12.48
2017-11-11T12:25:45.760Z,12.54
2017-11-11T12:28:12.410Z,12.45
2017-11-11T12:30:39.057Z,12.63
2017-11-11T12:33:06.488Z,12.86
2017-11-11T12:35:33.200Z,12.86
2017-11-11T12:37:59.896Z,13.12
2017-11-11T12:40:26.647Z,13.08
2017-11-11T12:42:53.315Z,13.09
2017-11-11T12:45:20.058Z,13.12
2017-11-11T12:47:46.778Z,13.29
2017-11-11T12:50:14.174Z,13.30
2017-11-11T12:52:40.878Z,12.91
2017-11-11T12:55:07.630Z,12.85
2017-11-11T12:57:35.064Z,12.64
2017-11-11T13:00:01.741Z,12.46
2017-11-11T13:02:29.192Z,12.22
2017-11-11T13:04:56.602Z,12.28
2017-11-11T13:07:23.284Z,12.28
2017-11-11T13:09:50.020Z,12.06
2017-11-11T13:12:16.708Z,12.00
2017-11-11T13:14:43.409Z,12.04
2017-11-11T13:17:10.087Z,12.10
2017-11-11T13:19:37.484Z,12.18
2017-11-11T13:22:04.172Z,12.02
2017-11-11T13:24:31.653Z,11.91
2017-11-11T13:26:58.315Z,11.94
2017-11-11T13:29:24.958Z,11.87
2017-11-11T13:31:51.647Z,11.89
2017-11-11T13:34:18.327Z,11.57
2017-11-11T13:36:45.024Z,11.52
2017-11-11T13:39:11.784Z,11.59
2017-11-11T13:41:39.220Z,11.48
2017-11-11T13:44:06.003Z,11.63
2017-11-11T13:46:34.410Z,11.64
2017-11-11T13:49:01.135Z,11.55
2017-11-11T13:51:28.545Z,11.72
2017-11-11T13:53:55.273Z,11.58
2017-11-11T13:56:21.935Z,11.32
2017-11-11T13:58:48.650Z,11.40
2017-11-11T14:01:15.378Z,11.34
2017-11-11T14:03:42.111Z,11.30
2017-11-11T14:06:09.525Z,11.16
2017-11-11T14:08:36.281Z,11.17
2017-11-11T14:11:02.991Z,11.25
2017-11-11T14:13:29.700Z,11.19
2017-11-11T14:15:57.439Z,11.20
2017-11-11T14:18:24.095Z,11.19
2017-11-11T14:20:50.965Z,11.31
2017-11-11T14:23:18.447Z,11.25
2017-11-11T14:25:45.133Z,11.22
2017-11-11T14:28:11.877Z,11.19
2017-11-11T14:30:38.565Z,11.15
2017-11-11T14:33:05.315Z,11.23
2017-11-11T14:35:32.048Z,11.28
2017-11-11T14:37:58.740Z,11.25
2017-11-11T14:40:25.448Z,11.34
2017-11-11T14:42:52.141Z,11.33
2017-11-11T14:45:18.904Z,11.35
2017-11-11T14:47:46.307Z,11.22
2017-11-11T14:50:12.976Z,11.24
2017-11-11T14:52:39.675Z,11.27
2017-11-11T14:55:06.402Z,11.32
2017-11-11T14:57:34.005Z,11.17
2017-11-11T15:00:00.736Z,11.01
2017-11-11T15:02:27.398Z,11.00
2017-11-11T15:04:55.207Z,10.96
2017-11-11T15:07:22.391Z,10.95
2017-11-11T15:09:49.816Z,10.98
2017-11-11T15:12:16.557Z,10.91
2017-11-11T15:14:43.549Z,10.89
2017-11-11T15:17:10.251Z,10.85
2017-11-11T15:19:37.015Z,10.81
2017-11-11T15:22:04.486Z,10.75
2017-11-11T15:24:31.971Z,10.69
2017-11-11T15:26:58.716Z,10.63
2017-11-11T15:29:25.448Z,10.58
2017-11-11T15:31:52.134Z,10.52
2017-11-11T15:34:18.791Z,10.46
2017-11-11T15:36:45.504Z,10.40
2017-11-11T15:39:12.917Z,10.34
2017-11-11T15:41:39.632Z,10.27
2017-11-11T15:44:06.409Z,10.21
2017-11-11T15:46:33.857Z,10.13
2017-11-11T15:49:01.309Z,10.07
2017-11-11T15:51:28.029Z,9.96
2017-11-11T15:53:54.702Z,9.92
2017-11-11T15:56:22.287Z,9.80
2017-11-11T15:58:49.736Z,9.53
2017-11-11T16:01:17.212Z,9.56
2017-11-11T16:03:44.683Z,9.55
2017-11-11T16:06:11.520Z,9.57
2017-11-11T16:08:38.993Z,9.52
2017-11-11T16:11:05.713Z,9.42
2017-11-11T16:13:33.235Z,9.29
2017-11-11T16:15:59.947Z,9.28
2017-11-11T16:18:27.131Z,9.20
2017-11-11T16:20:53.822Z,9.20
2017-11-11T16:23:21.270Z,9.15
2017-11-11T16:25:47.958Z,9.05
2017-11-11T16:28:15.630Z,8.96
2017-11-11T16:30:42.279Z,8.86
2017-11-11T16:33:09.037Z,8.87
2017-11-11T16:35:35.807Z,8.65
2017-11-11T16:38:02.477Z,8.61
2017-11-11T16:40:29.145Z,8.58
2017-11-11T16:42:56.587Z,8.47
2017-11-11T16:45:23.282Z,8.37
2017-11-11T16:47:49.970Z,8.35
2017-11-11T16:50:16.729Z,8.47
2017-11-11T16:52:43.448Z,8.37
2017-11-11T16:55:10.897Z,8.07
2017-11-11T16:57:38.380Z,8.13
2017-11-11T17:00:05.096Z,8.19
2017-11-11T17:02:32.495Z,8.33
2017-11-11T17:04:59.215Z,8.36
2017-11-11T17:07:28.442Z,8.37
2017-11-11T17:09:55.232Z,8.27
2017-11-11T17:12:21.989Z,8.26
2017-11-11T17:14:49.500Z,8.32
2017-11-11T17:17:16.257Z,8.35
2017-11-11T17:19:42.964Z,8.31
2017-11-11T17:22:10.383Z,8.35
2017-11-11T17:24:37.055Z,8.35
2017-11-11T17:27:04.522Z,8.37
2017-11-11T17:29:31.302Z,8.06
2017-11-11T17:31:57.988Z,8.10
2017-11-11T17:34:24.718Z,8.00
2017-11-11T17:36:51.419Z,7.93
2017-11-11T17:39:18.184Z,8.08
2017-11-11T17:41:44.916Z,8.19
2017-11-11T17:44:11.672Z,8.32
2017-11-11T17:46:38.411Z,8.43
2017-11-11T17:49:05.135Z,8.51
2017-11-11T17:51:31.838Z,8.56
2017-11-11T17:53:58.558Z,8.61
2017-11-11T17:56:25.402Z,8.64
2017-11-11T17:58:52.106Z,8.51
2017-11-11T18:01:18.888Z,8.53
2017-11-11T18:03:45.640Z,8.53
2017-11-11T18:06:12.633Z,8.42
2017-11-11T18:08:40.058Z,8.32
2017-11-11T18:11:06.805Z,8.41
2017-11-11T18:13:33.517Z,8.40
2017-11-11T18:16:00.199Z,8.32
2017-11-11T18:18:27.265Z,8.48
2017-11-11T18:20:54.687Z,8.56
2017-11-11T18:23:21.365Z,8.55
2017-11-11T18:25:48.083Z,8.58
2017-11-11T18:28:14.742Z,8.57
2017-11-11T18:30:41.449Z,8.43
2017-11-11T18:33:08.163Z,8.56
2017-11-11T18:35:34.844Z,8.62
2017-11-11T18:38:01.544Z,8.44
2017-11-11T18:40:28.489Z,8.54
2017-11-11T18:42:55.903Z,8.57
2017-11-11T18:45:22.596Z,8.57
2017-11-11T18:47:50.045Z,8.52
2017-11-11T18:50:17.509Z,8.52
2017-11-11T18:52:44.916Z,8.52
2017-11-11T18:55:12.231Z,8.30
2017-11-11T18:57:39.696Z,8.40
2017-11-11T19:00:07.164Z,8.19
2017-11-11T19:02:33.907Z,8.06
2017-11-11T19:05:00.663Z,8.07
2017-11-11T19:07:27.476Z,8.11
2017-11-11T19:09:54.206Z,8.07
2017-11-11T19:12:20.950Z,8.14
2017-11-11T19:14:47.644Z,8.21
2017-11-11T19:17:15.199Z,8.28
2017-11-11T19:19:42.046Z,8.23
2017-11-11T19:22:08.948Z,8.26
2017-11-11T19:24:36.486Z,8.27
2017-11-11T19:27:03.168Z,8.26
2017-11-11T19:29:30.629Z,8.26
2017-11-11T19:31:58.108Z,8.16
2017-11-11T19:34:24.801Z,7.85
2017-11-11T19:36:51.511Z,7.92
2017-11-11T19:39:18.235Z,7.88
2017-11-11T19:41:45.648Z,7.54
2017-11-11T19:44:12.370Z,7.51
2017-11-11T19:46:39.064Z,7.66
2017-11-11T19:49:05.737Z,7.64
2017-11-11T19:51:33.316Z,7.59
2017-11-11T19:54:00.033Z,7.59
2017-11-11T19:56:27.456Z,7.72
2017-11-11T19:58:54.170Z,7.71
2017-11-11T20:01:20.932Z,7.73
2017-11-11T20:03:47.759Z,7.67
2017-11-11T20:06:14.457Z,7.48
2017-11-11T20:08:41.930Z,7.43
2017-11-11T20:11:09.422Z,7.46
2017-11-11T20:13:36.319Z,7.19
2017-11-11T20:16:03.045Z,7.22
2017-11-11T20:18:29.791Z,7.24
2017-11-11T20:20:56.484Z,7.21
2017-11-11T20:23:23.166Z,7.14
2017-11-11T20:25:49.873Z,6.99
2017-11-11T20:28:16.603Z,6.95
2017-11-11T20:30:44.055Z,6.91
2017-11-11T20:33:11.524Z,6.86
2017-11-11T20:35:39.866Z,6.80
2017-11-11T20:38:06.874Z,6.76
2017-11-11T20:40:33.576Z,6.72
2017-11-11T20:43:00.253Z,6.66
2017-11-11T20:45:26.966Z,6.38
2017-11-11T20:47:53.728Z,6.38
2017-11-11T20:50:21.408Z,6.44
2017-11-11T20:52:49.119Z,6.43
2017-11-11T20:55:15.860Z,6.42
2017-11-11T20:57:42.546Z,6.41
2017-11-11T21:00:10.001Z,6.40
2017-11-11T21:02:37.440Z,6.42
2017-11-11T21:05:04.197Z,6.41
2017-11-11T21:07:32.014Z,6.42
2017-11-11T21:09:58.737Z,6.43
2017-11-11T21:12:26.163Z,6.43
2017-11-11T21:14:52.891Z,6.47
2017-11-11T21:17:19.569Z,6.50
2017-11-11T21:19:47.059Z,6.50
2017-11-11T21:22:14.713Z,6.47
2017-11-11T21:24:42.126Z,6.45
2017-11-11T21:27:08.845Z,6.43
2017-11-11T21:29:35.605Z,6.43
2017-11-11T21:32:02.423Z,6.49
2017-11-11T21:34:29.130Z,6.53
2017-11-11T21:36:56.744Z,6.55
2017-11-11T21:39:23.474Z,6.57
2017-11-11T21:41:50.209Z,6.62
2017-11-11T21:44:16.935Z,6.62
2017-11-11T21:46:44.375Z,6.67
2017-11-11T21:49:11.077Z,6.51
2017-11-11T21:51:37.934Z,6.52
2017-11-11T21:54:04.733Z,6.58
2017-11-11T21:56:32.148Z,6.60
2017-11-11T21:58:59.477Z,6.59
2017-11-11T22:01:26.164Z,6.53
2017-11-11T22:03:52.856Z,6.46
2017-11-11T22:06:19.656Z,6.25
2017-11-11T22:08:46.376Z,6.28
2017-11-11T22:11:13.065Z,6.27
2017-11-11T22:13:41.469Z,6.20
2017-11-11T22:16:08.160Z,6.12
2017-11-11T22:18:34.814Z,6.14
2017-11-11T22:21:01.522Z,6.04
2017-11-11T22:23:28.230Z,6.06
2017-11-11T22:25:55.708Z,6.08
2017-11-11T22:28:23.185Z,6.02
2017-11-11T22:30:49.884Z,6.01
2017-11-11T22:33:17.365Z,6.01
2017-11-11T22:35:44.117Z,5.88
2017-11-11T22:38:10.803Z,5.89
2017-11-11T22:40:37.500Z,5.84
2017-11-11T22:43:04.198Z,5.79
2017-11-11T22:45:30.904Z,5.81
2017-11-11T22:47:57.848Z,5.80
2017-11-11T22:50:24.571Z,5.75
2017-11-11T22:52:52.000Z,5.68
2017-11-11T22:55:18.710Z,5.62
2017-11-11T22:57:45.396Z,5.60
2017-11-11T23:00:12.972Z,5.57
2017-11-11T23:02:40.443Z,5.59
2017-11-11T23:05:08.807Z,5.50
2017-11-11T23:07:36.467Z,5.50
2017-11-11T23:10:03.778Z,5.54
2017-11-11T23:12:30.516Z,5.54
2017-11-11T23:14:57.203Z,5.58
2017-11-11T23:17:23.861Z,5.52
2017-11-11T23:19:51.244Z,5.54
2017-11-11T23:22:17.968Z,5.49
2017-11-11T23:24:44.707Z,5.32
2017-11-11T23:27:11.422Z,5.17
2017-11-11T23:29:38.110Z,5.08
2017-11-11T23:32:05.550Z,5.18
2017-11-11T23:34:32.321Z,5.20
2017-11-11T23:36:59.326Z,5.24
2017-11-11T23:39:26.040Z,5.17
2017-11-11T23:41:52.831Z,5.13
2017-11-11T23:44:19.506Z,5.06
2017-11-11T23:46:46.928Z,4.97
2017-11-11T23:49:13.604Z,4.89
2017-11-11T23:51:41.004Z,4.81
2017-11-11T23:54:07.692Z,4.87
2017-11-11T23:56:35.914Z,4.85
2017-11-11T23:59:03.521Z,4.86
